sensor_id;sensor_type;location;lat;lon;timestamp;pressure;altitude;pressure_sealevel;temperature;humidity
24752;BME280;27246;52.376;4.628;2023-02-19T00:03:16;101610.13;;;8.10;100.00
24752;BME280;27246;52.376;4.628;2023-02-19T00:08:17;101608.84;;;8.04;100.00
24752;BME280;27246;52.376;4.628;2023-02-19T00:13:19;101607.53;;;8.08;100.00
24752;BME280;27246;52.376;4.628;2023-02-19T00:18:22;101607.78;;;8.15;100.00
24752;BME280;27246;52.376;4.628;2023-02-19T00:23:24;101613.44;;;8.13;100.00
24752;BME280;27246;52.376;4.628;2023-02-19T00:28:25;101616.47;;;8.10;100.00
24752;BME280;27246;52.376;4.628;2023-02-19T00:33:27;101630.91;;;8.12;100.00
24752;BME280;27246;52.376;4.628;2023-02-19T00:38:31;101625.84;;;8.17;100.00
24752;BME280;27246;52.376;4.628;2023-02-19T00:43:33;101626.81;;;8.26;100.00
24752;BME280;27246;52.376;4.628;2023-02-19T00:48:34;101630.41;;;8.27;100.00
24752;BME280;27246;52.376;4.628;2023-02-19T00:53:36;101625.63;;;8.29;100.00
24752;BME280;27246;52.376;4.628;2023-02-19T00:58:38;101628.81;;;8.34;100.00
24752;BME280;27246;52.376;4.628;2023-02-19T01:03:40;101637.66;;;8.28;100.00
24752;BME280;27246;52.376;4.628;2023-02-19T01:08:42;101640.53;;;8.26;100.00
24752;BME280;27246;52.376;4.628;2023-02-19T01:13:44;101638.38;;;8.20;100.00
24752;BME280;27246;52.376;4.628;2023-02-19T01:18:46;101628.69;;;8.26;100.00
24752;BME280;27246;52.376;4.628;2023-02-19T01:23:49;101645.88;;;8.28;100.00
24752;BME280;27246;52.376;4.628;2023-02-19T01:28:51;101649.81;;;8.25;100.00
24752;BME280;27246;52.376;4.628;2023-02-19T01:33:56;101649.47;;;8.28;100.00
24752;BME280;27246;52.376;4.628;2023-02-19T01:38:59;101645.56;;;8.31;100.00
24752;BME280;27246;52.376;4.628;2023-02-19T01:49:17;101649.63;;;8.27;100.00
24752;BME280;27246;52.376;4.628;2023-02-19T01:54:24;101665.94;;;8.28;100.00
24752;BME280;27246;52.376;4.628;2023-02-19T01:59:27;101674.19;;;8.28;100.00
24752;BME280;27246;52.376;4.628;2023-02-19T02:04:30;101662.63;;;8.25;100.00
24752;BME280;27246;52.376;4.628;2023-02-19T02:09:32;101665.56;;;8.23;100.00
24752;BME280;27246;52.376;4.628;2023-02-19T02:14:52;101660.06;;;8.23;100.00
24752;BME280;27246;52.376;4.628;2023-02-19T02:25:36;101677.06;;;8.27;100.00
24752;BME280;27246;52.376;4.628;2023-02-19T02:30:44;101672.34;;;8.19;100.00
24752;BME280;27246;52.376;4.628;2023-02-19T02:35:55;101668.13;;;8.25;100.00
24752;BME280;27246;52.376;4.628;2023-02-19T02:40:58;101674.09;;;8.10;100.00
24752;BME280;27246;52.376;4.628;2023-02-19T02:46:01;101670.03;;;8.14;100.00
24752;BME280;27246;52.376;4.628;2023-02-19T02:51:24;101674.81;;;8.12;100.00
24752;BME280;27246;52.376;4.628;2023-02-19T02:56:38;101691.41;;;8.20;100.00
24752;BME280;27246;52.376;4.628;2023-02-19T03:07:11;101692.13;;;8.13;100.00
24752;BME280;27246;52.376;4.628;2023-02-19T03:12:14;101693.31;;;8.10;100.00
24752;BME280;27246;52.376;4.628;2023-02-19T03:17:42;101706.28;;;8.18;100.00
24752;BME280;27246;52.376;4.628;2023-02-19T03:23:06;101704.13;;;8.21;100.00
24752;BME280;27246;52.376;4.628;2023-02-19T03:28:11;101716.28;;;8.19;100.00
24752;BME280;27246;52.376;4.628;2023-02-19T03:33:21;101710.19;;;8.15;100.00
24752;BME280;27246;52.376;4.628;2023-02-19T03:38:35;101716.09;;;8.20;100.00
24752;BME280;27246;52.376;4.628;2023-02-19T03:43:47;101712.94;;;8.15;100.00
24752;BME280;27246;52.376;4.628;2023-02-19T03:48:58;101720.88;;;8.18;100.00
24752;BME280;27246;52.376;4.628;2023-02-19T03:54:11;101738.06;;;8.20;100.00
24752;BME280;27246;52.376;4.628;2023-02-19T03:59:21;101745.88;;;8.15;100.00
24752;BME280;27246;52.376;4.628;2023-02-19T04:04:34;101744.97;;;8.25;100.00
24752;BME280;27246;52.376;4.628;2023-02-19T04:09:46;101756.41;;;8.30;100.00
24752;BME280;27246;52.376;4.628;2023-02-19T04:15:05;101761.03;;;8.29;100.00
24752;BME280;27246;52.376;4.628;2023-02-19T04:20:09;101768.81;;;8.34;100.00
24752;BME280;27246;52.376;4.628;2023-02-19T04:25:12;101786.00;;;8.36;100.00
24752;BME280;27246;52.376;4.628;2023-02-19T04:30:15;101797.97;;;8.35;100.00
24752;BME280;27246;52.376;4.628;2023-02-19T04:35:16;101801.63;;;8.35;100.00
24752;BME280;27246;52.376;4.628;2023-02-19T04:40:18;101813.16;;;8.39;100.00
24752;BME280;27246;52.376;4.628;2023-02-19T04:45:20;101820.38;;;8.40;100.00
24752;BME280;27246;52.376;4.628;2023-02-19T04:50:21;101819.22;;;8.33;100.00
24752;BME280;27246;52.376;4.628;2023-02-19T04:55:23;101830.25;;;8.23;100.00
24752;BME280;27246;52.376;4.628;2023-02-19T05:00:25;101848.28;;;8.35;100.00
24752;BME280;27246;52.376;4.628;2023-02-19T05:05:27;101832.22;;;8.40;100.00
24752;BME280;27246;52.376;4.628;2023-02-19T05:10:29;101844.09;;;8.31;100.00
24752;BME280;27246;52.376;4.628;2023-02-19T05:15:30;101861.28;;;8.24;100.00
24752;BME280;27246;52.376;4.628;2023-02-19T05:20:32;101855.66;;;8.06;100.00
24752;BME280;27246;52.376;4.628;2023-02-19T05:25:33;101851.88;;;8.07;100.00
24752;BME280;27246;52.376;4.628;2023-02-19T05:30:35;101863.44;;;8.10;100.00
24752;BME280;27246;52.376;4.628;2023-02-19T05:35:50;101860.56;;;8.02;100.00
24752;BME280;27246;52.376;4.628;2023-02-19T05:40:52;101861.28;;;8.04;100.00
24752;BME280;27246;52.376;4.628;2023-02-19T05:45:57;101863.75;;;8.07;100.00
24752;BME280;27246;52.376;4.628;2023-02-19T05:51:06;101879.91;;;8.10;100.00
24752;BME280;27246;52.376;4.628;2023-02-19T05:56:34;101885.69;;;8.07;100.00
24752;BME280;27246;52.376;4.628;2023-02-19T06:01:36;101892.34;;;8.14;100.00
24752;BME280;27246;52.376;4.628;2023-02-19T06:06:39;101897.09;;;8.12;100.00
24752;BME280;27246;52.376;4.628;2023-02-19T06:11:41;101904.16;;;8.15;100.00
24752;BME280;27246;52.376;4.628;2023-02-19T06:16:44;101920.22;;;8.19;100.00
24752;BME280;27246;52.376;4.628;2023-02-19T06:21:48;101912.84;;;8.10;100.00
24752;BME280;27246;52.376;4.628;2023-02-19T06:26:50;101921.06;;;8.10;100.00
24752;BME280;27246;52.376;4.628;2023-02-19T06:31:52;101914.28;;;8.14;100.00
24752;BME280;27246;52.376;4.628;2023-02-19T06:36:53;101923.81;;;8.10;100.00
24752;BME280;27246;52.376;4.628;2023-02-19T06:41:58;101939.84;;;8.05;100.00
24752;BME280;27246;52.376;4.628;2023-02-19T06:46:59;101942.75;;;8.13;100.00
24752;BME280;27246;52.376;4.628;2023-02-19T06:52:01;101950.69;;;8.16;100.00
24752;BME280;27246;52.376;4.628;2023-02-19T06:57:04;101968.63;;;8.20;100.00
24752;BME280;27246;52.376;4.628;2023-02-19T07:02:06;101979.88;;;8.17;100.00
24752;BME280;27246;52.376;4.628;2023-02-19T07:07:10;101991.13;;;8.14;100.00
24752;BME280;27246;52.376;4.628;2023-02-19T07:12:12;101992.25;;;8.02;100.00
24752;BME280;27246;52.376;4.628;2023-02-19T07:17:14;102008.16;;;8.08;100.00
24752;BME280;27246;52.376;4.628;2023-02-19T07:22:15;102012.66;;;8.09;100.00
24752;BME280;27246;52.376;4.628;2023-02-19T07:27:17;102021.16;;;8.06;100.00
24752;BME280;27246;52.376;4.628;2023-02-19T07:32:19;102040.19;;;7.98;100.00
24752;BME280;27246;52.376;4.628;2023-02-19T07:37:20;102033.25;;;7.94;100.00
24752;BME280;27246;52.376;4.628;2023-02-19T07:42:22;102056.06;;;7.94;100.00
24752;BME280;27246;52.376;4.628;2023-02-19T07:47:24;102046.72;;;7.97;100.00
24752;BME280;27246;52.376;4.628;2023-02-19T07:52:25;102054.38;;;8.03;100.00
24752;BME280;27246;52.376;4.628;2023-02-19T07:57:27;102065.91;;;8.07;100.00
24752;BME280;27246;52.376;4.628;2023-02-19T08:02:30;102075.72;;;7.99;100.00
24752;BME280;27246;52.376;4.628;2023-02-19T08:07:50;102062.63;;;8.03;100.00
24752;BME280;27246;52.376;4.628;2023-02-19T08:12:58;102068.22;;;8.01;100.00
24752;BME280;27246;52.376;4.628;2023-02-19T08:18:21;102079.63;;;7.97;100.00
24752;BME280;27246;52.376;4.628;2023-02-19T08:23:25;102103.59;;;7.95;100.00
24752;BME280;27246;52.376;4.628;2023-02-19T08:28:27;102096.47;;;7.92;100.00
24752;BME280;27246;52.376;4.628;2023-02-19T08:33:29;102107.63;;;8.00;100.00
24752;BME280;27246;52.376;4.628;2023-02-19T08:38:32;102102.75;;;8.04;100.00
24752;BME280;27246;52.376;4.628;2023-02-19T08:43:36;102095.38;;;8.05;100.00
24752;BME280;27246;52.376;4.628;2023-02-19T08:48:38;102113.00;;;8.02;100.00
24752;BME280;27246;52.376;4.628;2023-02-19T08:53:40;102105.13;;;8.18;100.00
24752;BME280;27246;52.376;4.628;2023-02-19T08:58:42;102114.56;;;8.26;100.00
24752;BME280;27246;52.376;4.628;2023-02-19T09:03:44;102123.94;;;8.23;100.00
24752;BME280;27246;52.376;4.628;2023-02-19T09:08:46;102149.63;;;8.22;100.00
24752;BME280;27246;52.376;4.628;2023-02-19T09:13:48;102154.88;;;8.25;100.00
24752;BME280;27246;52.376;4.628;2023-02-19T09:18:49;102168.72;;;8.24;100.00
24752;BME280;27246;52.376;4.628;2023-02-19T09:23:51;102187.81;;;8.25;100.00
24752;BME280;27246;52.376;4.628;2023-02-19T09:28:53;102200.25;;;8.29;100.00
24752;BME280;27246;52.376;4.628;2023-02-19T09:33:55;102209.06;;;8.33;100.00
24752;BME280;27246;52.376;4.628;2023-02-19T09:38:56;102212.16;;;8.39;100.00
24752;BME280;27246;52.376;4.628;2023-02-19T09:44:02;102216.38;;;8.44;100.00
24752;BME280;27246;52.376;4.628;2023-02-19T09:49:09;102220.97;;;8.43;100.00
24752;BME280;27246;52.376;4.628;2023-02-19T09:54:26;102240.38;;;8.51;100.00
24752;BME280;27246;52.376;4.628;2023-02-19T09:59:52;102247.88;;;8.49;100.00
24752;BME280;27246;52.376;4.628;2023-02-19T10:04:59;102252.84;;;8.55;100.00
24752;BME280;27246;52.376;4.628;2023-02-19T10:10:31;102266.13;;;8.50;100.00
24752;BME280;27246;52.376;4.628;2023-02-19T10:15:53;102282.03;;;8.56;100.00
24752;BME280;27246;52.376;4.628;2023-02-19T10:20:56;102296.81;;;8.55;100.00
24752;BME280;27246;52.376;4.628;2023-02-19T10:25:59;102291.09;;;8.47;100.00
24752;BME280;27246;52.376;4.628;2023-02-19T10:31:04;102296.19;;;8.52;100.00
24752;BME280;27246;52.376;4.628;2023-02-19T10:36:41;102299.06;;;8.50;100.00
24752;BME280;27246;52.376;4.628;2023-02-19T10:41:41;102295.41;;;8.40;100.00
24752;BME280;27246;52.376;4.628;2023-02-19T10:46:47;102298.00;;;8.41;100.00
24752;BME280;27246;52.376;4.628;2023-02-19T10:51:51;102293.19;;;8.34;100.00
24752;BME280;27246;52.376;4.628;2023-02-19T10:56:54;102303.31;;;8.33;100.00
24752;BME280;27246;52.376;4.628;2023-02-19T11:02:15;102322.38;;;8.35;100.00
24752;BME280;27246;52.376;4.628;2023-02-19T11:07:17;102332.78;;;8.31;100.00
24752;BME280;27246;52.376;4.628;2023-02-19T11:12:37;102338.25;;;8.31;100.00
24752;BME280;27246;52.376;4.628;2023-02-19T11:17:39;102344.88;;;8.29;100.00
24752;BME280;27246;52.376;4.628;2023-02-19T11:22:41;102346.88;;;8.27;100.00
24752;BME280;27246;52.376;4.628;2023-02-19T11:28:02;102349.41;;;8.18;100.00
24752;BME280;27246;52.376;4.628;2023-02-19T11:38:22;102341.00;;;8.31;100.00
24752;BME280;27246;52.376;4.628;2023-02-19T11:48:52;102344.81;;;8.19;99.94
24752;BME280;27246;52.376;4.628;2023-02-19T12:10:58;102371.28;;;8.09;100.00
24752;BME280;27246;52.376;4.628;2023-02-19T12:26:29;102402.28;;;7.99;99.88
24752;BME280;27246;52.376;4.628;2023-02-19T12:31:41;102384.06;;;7.98;99.85
24752;BME280;27246;52.376;4.628;2023-02-19T12:36:55;102389.69;;;7.97;99.02
24752;BME280;27246;52.376;4.628;2023-02-19T12:47:31;102424.00;;;7.91;98.69
24752;BME280;27246;52.376;4.628;2023-02-19T12:52:39;102440.56;;;8.01;99.96
24752;BME280;27246;52.376;4.628;2023-02-19T12:57:42;102440.31;;;8.04;99.29
24752;BME280;27246;52.376;4.628;2023-02-19T13:02:52;102431.78;;;8.18;99.40
24752;BME280;27246;52.376;4.628;2023-02-19T13:08:18;102412.78;;;8.27;97.77
24752;BME280;27246;52.376;4.628;2023-02-19T13:13:28;102423.50;;;8.30;94.85
24752;BME280;27246;52.376;4.628;2023-02-19T13:18:50;102445.34;;;8.31;92.18
24752;BME280;27246;52.376;4.628;2023-02-19T13:23:53;102467.34;;;8.20;90.07
24752;BME280;27246;52.376;4.628;2023-02-19T13:34:26;102476.66;;;8.29;88.58
24752;BME280;27246;52.376;4.628;2023-02-19T13:39:33;102468.16;;;8.32;88.19
24752;BME280;27246;52.376;4.628;2023-02-19T13:44:37;102468.91;;;8.34;86.06
24752;BME280;27246;52.376;4.628;2023-02-19T13:49:41;102483.59;;;8.44;86.31
24752;BME280;27246;52.376;4.628;2023-02-19T13:54:43;102481.19;;;8.51;87.45
24752;BME280;27246;52.376;4.628;2023-02-19T13:59:45;102485.81;;;8.50;86.89
24752;BME280;27246;52.376;4.628;2023-02-19T14:04:57;102496.06;;;8.48;87.05
24752;BME280;27246;52.376;4.628;2023-02-19T14:10:01;102477.63;;;8.39;87.78
24752;BME280;27246;52.376;4.628;2023-02-19T14:20:44;102445.47;;;8.30;86.13
24752;BME280;27246;52.376;4.628;2023-02-19T14:25:49;102459.94;;;8.32;84.59
24752;BME280;27246;52.376;4.628;2023-02-19T14:41:02;102451.47;;;8.24;84.04
24752;BME280;27246;52.376;4.628;2023-02-19T14:46:38;102451.78;;;8.09;85.43
24752;BME280;27246;52.376;4.628;2023-02-19T14:51:44;102455.56;;;7.97;84.42
24752;BME280;27246;52.376;4.628;2023-02-19T14:56:51;102442.91;;;8.06;84.98
24752;BME280;27246;52.376;4.628;2023-02-19T15:02:02;102458.75;;;8.02;83.43
24752;BME280;27246;52.376;4.628;2023-02-19T15:07:09;102471.00;;;8.09;84.23
24752;BME280;27246;52.376;4.628;2023-02-19T15:12:16;102472.09;;;8.07;83.91
24752;BME280;27246;52.376;4.628;2023-02-19T15:17:32;102482.09;;;7.96;84.30
24752;BME280;27246;52.376;4.628;2023-02-19T15:22:38;102480.63;;;7.81;84.40
24752;BME280;27246;52.376;4.628;2023-02-19T15:27:41;102489.97;;;7.78;83.28
24752;BME280;27246;52.376;4.628;2023-02-19T15:32:51;102485.00;;;7.72;84.09
24752;BME280;27246;52.376;4.628;2023-02-19T15:37:53;102489.34;;;7.52;84.84
24752;BME280;27246;52.376;4.628;2023-02-19T15:42:57;102479.25;;;7.64;86.23
24752;BME280;27246;52.376;4.628;2023-02-19T15:48:06;102487.63;;;7.74;87.93
24752;BME280;27246;52.376;4.628;2023-02-19T15:53:15;102484.50;;;7.78;88.49
24752;BME280;27246;52.376;4.628;2023-02-19T16:03:26;102497.97;;;7.70;88.54
24752;BME280;27246;52.376;4.628;2023-02-19T16:08:33;102501.72;;;7.69;87.45
24752;BME280;27246;52.376;4.628;2023-02-19T16:13:35;102497.38;;;7.67;88.00
24752;BME280;27246;52.376;4.628;2023-02-19T16:18:36;102507.56;;;7.53;87.79
24752;BME280;27246;52.376;4.628;2023-02-19T16:23:43;102510.81;;;7.70;88.33
24752;BME280;27246;52.376;4.628;2023-02-19T16:28:51;102506.19;;;7.70;88.87
24752;BME280;27246;52.376;4.628;2023-02-19T16:33:53;102484.16;;;7.60;87.26
24752;BME280;27246;52.376;4.628;2023-02-19T16:39:03;102488.47;;;7.40;87.08
24752;BME280;27246;52.376;4.628;2023-02-19T16:49:22;102503.56;;;7.46;87.15
24752;BME280;27246;52.376;4.628;2023-02-19T16:54:24;102520.91;;;7.58;86.92
24752;BME280;27246;52.376;4.628;2023-02-19T16:59:25;102514.56;;;7.57;85.96
24752;BME280;27246;52.376;4.628;2023-02-19T17:04:28;102514.03;;;7.41;85.00
24752;BME280;27246;52.376;4.628;2023-02-19T17:09:30;102536.44;;;7.35;83.82
24752;BME280;27246;52.376;4.628;2023-02-19T17:14:32;102532.31;;;7.29;83.70
24752;BME280;27246;52.376;4.628;2023-02-19T17:19:34;102532.94;;;7.33;84.44
24752;BME280;27246;52.376;4.628;2023-02-19T17:24:35;102533.53;;;7.25;85.22
24752;BME280;27246;52.376;4.628;2023-02-19T17:29:38;102533.66;;;7.24;85.77
24752;BME280;27246;52.376;4.628;2023-02-19T17:34:40;102540.91;;;7.25;85.44
24752;BME280;27246;52.376;4.628;2023-02-19T17:39:42;102511.72;;;7.24;85.34
24752;BME280;27246;52.376;4.628;2023-02-19T17:44:44;102515.81;;;7.07;85.40
24752;BME280;27246;52.376;4.628;2023-02-19T17:49:47;102526.13;;;7.03;85.65
24752;BME280;27246;52.376;4.628;2023-02-19T17:54:48;102513.31;;;7.04;85.28
24752;BME280;27246;52.376;4.628;2023-02-19T17:59:50;102508.47;;;6.96;85.44
24752;BME280;27246;52.376;4.628;2023-02-19T18:04:52;102488.56;;;6.70;86.47
24752;BME280;27246;52.376;4.628;2023-02-19T18:09:53;102499.84;;;6.65;87.03
24752;BME280;27246;52.376;4.628;2023-02-19T18:14:55;102504.13;;;6.45;88.01
24752;BME280;27246;52.376;4.628;2023-02-19T18:19:57;102513.16;;;6.34;88.53
24752;BME280;27246;52.376;4.628;2023-02-19T18:24:59;102503.50;;;6.41;89.24
24752;BME280;27246;52.376;4.628;2023-02-19T18:30:01;102523.47;;;6.31;89.56
24752;BME280;27246;52.376;4.628;2023-02-19T18:35:04;102512.22;;;6.22;90.81
24752;BME280;27246;52.376;4.628;2023-02-19T18:40:06;102517.97;;;6.31;90.96
24752;BME280;27246;52.376;4.628;2023-02-19T18:45:08;102519.22;;;6.27;91.00
24752;BME280;27246;52.376;4.628;2023-02-19T18:50:11;102527.38;;;6.15;91.50
24752;BME280;27246;52.376;4.628;2023-02-19T18:55:12;102519.16;;;6.15;92.49
24752;BME280;27246;52.376;4.628;2023-02-19T19:00:20;102522.41;;;6.20;92.25
24752;BME280;27246;52.376;4.628;2023-02-19T19:05:23;102511.91;;;6.14;92.33
24752;BME280;27246;52.376;4.628;2023-02-19T19:10:25;102498.13;;;6.16;93.18
24752;BME280;27246;52.376;4.628;2023-02-19T19:15:27;102505.63;;;6.01;93.10
24752;BME280;27246;52.376;4.628;2023-02-19T19:20:29;102512.75;;;6.04;94.17
24752;BME280;27246;52.376;4.628;2023-02-19T19:25:30;102515.22;;;6.07;94.44
24752;BME280;27246;52.376;4.628;2023-02-19T19:30:32;102502.59;;;5.93;94.80
24752;BME280;27246;52.376;4.628;2023-02-19T19:35:34;102492.09;;;5.87;95.78
24752;BME280;27246;52.376;4.628;2023-02-19T19:40:36;102493.75;;;5.89;95.97
24752;BME280;27246;52.376;4.628;2023-02-19T19:45:37;102491.41;;;5.96;96.45
24752;BME280;27246;52.376;4.628;2023-02-19T19:50:39;102493.19;;;5.84;96.98
24752;BME280;27246;52.376;4.628;2023-02-19T19:55:41;102502.06;;;5.88;97.91
24752;BME280;27246;52.376;4.628;2023-02-19T20:00:43;102490.69;;;5.81;98.49
24752;BME280;27246;52.376;4.628;2023-02-19T20:05:46;102487.72;;;5.84;99.15
24752;BME280;27246;52.376;4.628;2023-02-19T20:10:50;102472.31;;;5.83;99.62
24752;BME280;27246;52.376;4.628;2023-02-19T20:15:52;102474.75;;;5.75;99.99
24752;BME280;27246;52.376;4.628;2023-02-19T20:20:53;102461.28;;;5.72;100.00
24752;BME280;27246;52.376;4.628;2023-02-19T20:25:55;102463.47;;;5.79;100.00
24752;BME280;27246;52.376;4.628;2023-02-19T20:30:58;102455.38;;;5.78;100.00
24752;BME280;27246;52.376;4.628;2023-02-19T20:35:59;102465.44;;;5.77;100.00
24752;BME280;27246;52.376;4.628;2023-02-19T20:41:01;102466.00;;;5.70;100.00
24752;BME280;27246;52.376;4.628;2023-02-19T20:46:03;102473.22;;;5.71;100.00
24752;BME280;27246;52.376;4.628;2023-02-19T20:51:05;102468.31;;;5.63;100.00
24752;BME280;27246;52.376;4.628;2023-02-19T20:56:07;102433.44;;;5.54;100.00
24752;BME280;27246;52.376;4.628;2023-02-19T21:01:09;102441.66;;;5.54;100.00
24752;BME280;27246;52.376;4.628;2023-02-19T21:06:12;102435.75;;;5.47;100.00
24752;BME280;27246;52.376;4.628;2023-02-19T21:11:14;102440.00;;;5.51;100.00
24752;BME280;27246;52.376;4.628;2023-02-19T21:16:16;102438.16;;;5.52;100.00
24752;BME280;27246;52.376;4.628;2023-02-19T21:21:19;102430.94;;;5.51;100.00
24752;BME280;27246;52.376;4.628;2023-02-19T21:26:22;102425.69;;;5.48;100.00
24752;BME280;27246;52.376;4.628;2023-02-19T21:31:24;102421.22;;;5.47;100.00
24752;BME280;27246;52.376;4.628;2023-02-19T21:36:35;102415.78;;;5.47;100.00
24752;BME280;27246;52.376;4.628;2023-02-19T21:41:37;102415.00;;;5.45;100.00
24752;BME280;27246;52.376;4.628;2023-02-19T21:46:39;102425.50;;;5.51;100.00
24752;BME280;27246;52.376;4.628;2023-02-19T21:51:43;102420.63;;;5.54;100.00
24752;BME280;27246;52.376;4.628;2023-02-19T21:56:45;102416.94;;;5.55;100.00
24752;BME280;27246;52.376;4.628;2023-02-19T22:01:47;102407.78;;;5.56;100.00
24752;BME280;27246;52.376;4.628;2023-02-19T22:06:54;102421.09;;;5.61;100.00
24752;BME280;27246;52.376;4.628;2023-02-19T22:11:56;102401.72;;;5.64;100.00
24752;BME280;27246;52.376;4.628;2023-02-19T22:16:58;102397.00;;;5.66;100.00
24752;BME280;27246;52.376;4.628;2023-02-19T22:21:59;102396.13;;;5.66;100.00
24752;BME280;27246;52.376;4.628;2023-02-19T22:27:01;102389.34;;;5.71;99.85
24752;BME280;27246;52.376;4.628;2023-02-19T22:32:03;102367.00;;;5.77;99.65
24752;BME280;27246;52.376;4.628;2023-02-19T22:37:05;102359.66;;;5.78;98.95
24752;BME280;27246;52.376;4.628;2023-02-19T22:42:06;102355.94;;;5.79;98.53
24752;BME280;27246;52.376;4.628;2023-02-19T22:47:08;102350.78;;;5.87;98.27
24752;BME280;27246;52.376;4.628;2023-02-19T22:52:10;102356.41;;;5.97;98.20
24752;BME280;27246;52.376;4.628;2023-02-19T22:57:13;102358.69;;;6.03;97.73
24752;BME280;27246;52.376;4.628;2023-02-19T23:02:15;102361.91;;;6.08;98.33
24752;BME280;27246;52.376;4.628;2023-02-19T23:07:16;102361.44;;;6.14;98.21
24752;BME280;27246;52.376;4.628;2023-02-19T23:12:18;102375.41;;;6.22;98.86
24752;BME280;27246;52.376;4.628;2023-02-19T23:17:20;102362.75;;;6.33;99.16
24752;BME280;27246;52.376;4.628;2023-02-19T23:22:21;102368.75;;;6.38;99.32
24752;BME280;27246;52.376;4.628;2023-02-19T23:27:23;102346.59;;;6.41;100.00
24752;BME280;27246;52.376;4.628;2023-02-19T23:32:27;102342.75;;;6.44;100.00
24752;BME280;27246;52.376;4.628;2023-02-19T23:37:28;102308.03;;;6.44;100.00
24752;BME280;27246;52.376;4.628;2023-02-19T23:42:30;102320.59;;;6.47;100.00
24752;BME280;27246;52.376;4.628;2023-02-19T23:47:32;102301.69;;;6.55;100.00
24752;BME280;27246;52.376;4.628;2023-02-19T23:52:34;102294.00;;;6.60;100.00
24752;BME280;27246;52.376;4.628;2023-02-19T23:57:35;102293.75;;;6.63;100.00
